Latest Coastal Weather Observations for Cape Sorell

IDT60701

Issued at 4:25 am EST Tuesday 23 September 2014 (issued every 10 minutes, with the page automatically refreshed every 10 minutes)

About coastal observations | Map of coastal stations | Coastal observations for TAS | Marine services | Other Formats
Station Details ID: 097000 Name: CAPE SORELL Lat: -42.20 Lon: 145.17 Height: 19.3 m
Data from the previous 72 hours. | See also: Recent months at Cape Sorell
Date/Time
EST
Temp

°C
Wind Pressure Rain
since 9am
mm
Weather Cloud Vis
km
Sea
Height
m
Swell
Dir
 
Speed
knots
Gust
knots
hPa Trend Height
m
Period
s
Dir
23/04:00am 11.9 NNE 13 16 1023.7 - 0.0 - - - - - - -
23/03:30am 11.8 NNE 13 15 1023.7 - 0.0 - - - - - - -
23/03:00am 11.8 NNE 13 15 1024.0 - 0.0 - - - - - - -
23/02:30am 12.0 NNE 12 14 1024.2 - 0.0 - - - - - - -
23/02:00am 12.2 NNE 14 16 1024.4 - 0.0 - - - - - - -
23/01:30am 12.3 NNE 14 16 1024.8 - 0.0 - - - - - - -
23/01:00am 12.3 NNE 14 16 1025.0 - 0.0 - - - - - - -
23/12:30am 12.2 NNE 13 15 1025.1 - 0.0 - - - - - - -
23/12:00am 12.3 NNE 12 15 1025.0 - 0.0 - - - - - - -
 
Date/Time
EST
Temp

°C
Wind Pressure Rain
since 9am
mm
Weather Cloud Vis
km
Sea
Height
m
Swell
Dir
 
Speed
knots
Gust
knots
hPa Trend Height
m
Period
s
Dir
22/11:30pm 12.1 NNE 11 13 1025.1 - 0.0 - - - - - - -
22/11:00pm 12.0 NNE 10 12 1025.1 - 0.0 - - - - - - -
22/10:30pm 12.1 NNE 8 10 1025.2 - 0.0 - - - - - - -
22/10:00pm 12.3 NNE 8 9 1025.4 - 0.0 - - - - - - -
22/09:30pm 13.0 N 12 14 1025.4 - 0.0 - - - - - - -
22/09:00pm 13.2 N 13 16 1025.5 - 0.0 - - - - - - -
22/08:30pm 13.3 N 14 18 1025.4 - 0.0 - - - - - - -
22/08:00pm 13.1 NNW 13 17 1025.5 - 0.0 - - - - - - -
22/07:30pm 13.0 NNW 13 17 1025.2 - 0.0 - - - - - - -
22/07:00pm 13.0 NNW 13 17 1024.9 - 0.0 - - - - - - -
22/06:30pm 12.7 NW 9 12 1025.2 - 0.0 - - - - - - -
22/06:00pm 13.0 NNW 12 16 1024.7 - 0.0 - - - - - - -
22/05:30pm 13.2 NNW 11 17 1024.5 - 0.0 - - - - - - -
22/05:00pm 13.4 NNW 14 20 1024.1 - 0.0 - - - - - - -
22/04:30pm 13.9 NNW 14 19 1024.2 - 0.0 - - - - - - -
22/04:00pm 14.0 NW 15 19 1024.2 - 0.0 - - - - - - -
22/03:30pm 14.5 NW 14 17 1024.6 - 0.0 - - - - - - -
22/03:00pm 14.7 NW 14 18 1024.8 - 0.0 - - - - - - -
22/02:30pm 14.8 NW 14 17 1025.2 - 0.0 - - - - - - -
22/02:00pm 14.9 NW 14 17 1025.6 - 0.0 - - - - - - -
22/01:30pm 15.1 NW 14 18 1025.8 - 0.0 - - - - - - -
22/01:00pm 15.3 NW 13 18 1026.2 - 0.0 - - - - - - -
22/12:30pm 15.3 NW 12 17 1026.4 - 0.0 - - - - - - -
22/12:00pm 15.0 NW 12 17 1026.4 - 0.0 - - - - - - -
22/11:30am 14.7 NW 14 16 1026.8 - 0.0 - - - - - - -
22/11:00am 14.5 NNW 16 19 1027.0 - 0.0 - - - - - - -
22/10:30am 13.9 NNW 12 17 1027.1 - 0.0 - - - - - - -
22/10:00am 13.0 N 14 18 1027.1 - 0.0 - - - - - - -
22/09:30am 12.9 N 13 16 1027.3 - 0.0 - - - - - - -
22/09:00am 12.6 N 11 14 1027.6 - 0.0 - - - - - - -
22/08:30am 11.5 N 7 10 1027.7 - 0.0 - - - - - - -
22/08:00am 9.9 NE 8 9 1027.5 - 0.0 - - - - - - -
22/07:30am 8.8 NE 7 8 1027.4 - 0.0 - - - - - - -
22/07:00am 7.6 ENE 7 8 1027.4 - 0.0 - - - - - - -
22/06:30am 6.8 ENE 8 10 1027.2 - 0.0 - - - - - - -
22/06:00am 7.3 ENE 7 8 1027.2 - 0.0 - - - - - - -
22/05:30am 7.7 ENE 7 9 1027.2 - 0.0 - - - - - - -
22/05:00am 7.5 ENE 8 10 1026.9 - 0.0 - - - - - - -
22/04:30am 7.5 E 8 10 1026.8 - 0.0 - - - - - - -
22/04:00am 7.3 E 9 11 1026.6 - 0.0 - - - - - - -
22/03:30am 7.3 E 8 10 1026.6 - 0.0 - - - - - - -
22/03:00am 7.2 E 9 10 1027.0 - 0.0 - - - - - - -
22/02:30am 7.1 ENE 7 8 1027.2 - 0.0 - - - - - - -
22/02:00am 8.3 NE 5 7 1027.4 - 0.0 - - - - - - -
22/01:30am 8.2 NE 6 8 1027.5 - 0.0 - - - - - - -
22/01:00am 7.6 ENE 8 9 1027.8 - 0.0 - - - - - - -
22/12:30am 8.5 NE 7 8 1028.0 - 0.0 - - - - - - -
22/12:00am 8.2 ENE 7 9 1028.2 - 0.0 - - - - - - -
 
Date/Time
EST
Temp

°C
Wind Pressure Rain
since 9am
mm
Weather Cloud Vis
km
Sea
Height
m
Swell
Dir
 
Speed
knots
Gust
knots
hPa Trend Height
m
Period
s
Dir
21/11:30pm 8.8 ENE 5 6 1028.5 - 0.0 - - - - - - -
21/11:00pm 9.2 ENE 5 5 1028.8 - 0.0 - - - - - - -
21/10:30pm 10.1 ENE 6 7 1029.1 - 0.0 - - - - - - -
21/10:00pm 10.3 ENE 5 5 1029.4 - 0.0 - - - - - - -
21/09:30pm 9.8 E 3 3 1029.6 - 0.0 - - - - - - -
21/09:00pm 9.9 SE 3 5 1029.6 - 0.0 - - - - - - -
21/08:30pm 10.7 ESE 4 4 1029.7 - 0.0 - - - - - - -
21/08:00pm 10.7 SE 2 2 1029.7 - 0.0 - - - - - - -
21/07:30pm 10.8 ESE 2 2 1029.6 - 0.0 - - - - - - -
21/07:00pm 11.0 E 3 4 1029.5 - 0.0 - - - - - - -
21/06:30pm 11.6 ESE 3 4 1029.4 - 0.0 - - - - - - -
21/06:00pm 12.5 S 3 5 1029.3 - 0.0 - - - - - - -
21/05:30pm 12.8 SW 3 4 1029.3 - 0.0 - - - - - - -
21/05:00pm 13.2 WNW 1 3 1029.4 - 0.0 - - - - - - -
21/04:30pm 13.3 W 2 3 1029.5 - 0.0 - - - - - - -
21/04:00pm 13.8 WNW 3 5 1029.6 - 0.0 - - - - - - -
21/03:30pm 13.4 WSW 7 9 1029.6 - 0.0 - - - - - - -
21/03:00pm 13.0 WSW 10 13 1029.6 - 0.0 - - - - - - -
21/02:30pm 14.2 SW 2 3 1029.6 - 0.0 - - - - - - -
21/02:00pm 14.4 SSW 6 8 1029.6 - 0.0 - - - - - - -
21/01:30pm 14.5 SW 7 8 1029.7 - 0.0 - - - - - - -
21/01:00pm 14.1 SW 7 10 1029.7 - 0.0 - - - - - - -
21/12:30pm 14.9 SW 10 12 1029.7 - 0.0 - - - - - - -
21/12:00pm 14.3 SW 8 10 1030.0 - 0.0 - - - - - - -
21/11:30am 14.0 SW 9 11 1030.1 - 0.0 - - - - - - -
21/11:00am 14.3 SW 10 12 1030.1 - 0.0 - - - - - - -
21/10:30am 13.9 SW 7 9 1030.2 - 0.0 - - - - - - -
21/10:00am 14.3 SW 11 12 1030.1 - 0.0 - - - - - - -
21/09:30am 12.8 SW 12 14 1030.1 - 0.0 - - - - - - -
21/09:00am 12.9 SW 13 15 1029.8 - 0.2 - - - - - - -
21/08:30am 12.2 SW 15 18 1029.5 - 0.2 - - - - - - -
21/08:00am 12.1 SW 12 13 1029.3 - 0.2 - - - - - - -
21/07:30am 11.8 SSW 14 16 1029.1 - 0.2 - - - - - - -
21/07:00am 11.6 SSW 15 18 1028.7 - 0.2 - - - - - - -
21/06:30am 11.6 SW 16 18 1028.5 - 0.2 - - - - - - -
21/06:00am 11.5 SW 14 17 1028.1 - 0.2 - - - - - - -
21/05:30am 11.1 SSW 9 10 1028.0 - 0.2 - - - - - - -
21/05:00am 11.5 SW 19 25 1027.6 - 0.2 - - - - - - -
21/04:55am 11.9 SW 15 25 1027.6 - 0.2 - - - - - - -
21/04:30am 11.6 WSW 12 15 1027.6 - 0.2 - - - - - - -
21/04:00am 12.1 WSW 14 20 1027.5 - 0.2 - - - - - - -
21/03:30am 12.2 WSW 12 14 1027.6 - 0.2 - - - - - - -
21/03:00am 12.0 W 10 14 1027.7 - 0.2 - - - - - - -
21/02:30am 12.0 WSW 12 15 1028.0 - 0.2 - - - - - - -
21/02:00am 11.9 WSW 11 14 1028.3 - 0.2 - - - - - - -
21/01:30am 12.0 WSW 13 16 1028.4 - 0.2 - - - - - - -
21/01:00am 11.9 WSW 11 14 1028.5 - 0.2 - - - - - - -
21/12:30am 11.4 WSW 10 12 1028.2 - 0.2 - - - - - - -
21/12:00am 11.8 W 8 10 1028.3 - 0.2 - - - - - - -
 
Date/Time
EST
Temp

°C
Wind Pressure Rain
since 9am
mm
Weather Cloud Vis
km
Sea
Height
m
Swell
Dir
 
Speed
knots
Gust
knots
hPa Trend Height
m
Period
s
Dir
20/11:30pm 11.8 WSW 11 14 1028.4 - 0.2 - - - - - - -
20/11:00pm 11.9 WSW 13 16 1028.6 - 0.2 - - - - - - -
20/10:30pm 11.9 WSW 13 19 1028.5 - 0.2 - - - - - - -
20/10:00pm 12.0 WSW 12 14 1028.7 - 0.2 - - - - - - -
20/09:30pm 12.0 WSW 14 16 1028.8 - 0.2 - - - - - - -
20/09:00pm 11.9 WSW 12 15 1028.9 - 0.2 - - - - - - -
20/08:30pm 11.9 WSW 12 16 1028.6 - 0.2 - - - - - - -
20/08:00pm 11.7 SW 9 14 1028.5 - 0.2 - - - - - - -
20/07:30pm 11.7 WSW 12 14 1028.3 - 0.2 - - - - - - -
20/07:00pm 11.8 WSW 13 16 1027.9 - 0.2 - - - - - - -
20/06:30pm 11.5 WSW 10 12 1027.6 - 0.2 - - - - - - -
20/06:00pm 10.9 WSW 6 8 1027.5 - 0.2 Recent precip. - - - - - -
20/05:30pm 11.2 WSW 5 7 1027.2 - 0.2 - - - - - - -
20/05:00pm 11.7 WSW 7 9 1027.3 - 0.0 - - - - - - -
20/04:30pm 11.3 WSW 14 20 1027.2 - 0.0 - - - - - - -
20/04:00pm 12.2 SW 12 15 1027.2 - 0.0 - - - - - - -
20/03:30pm 12.6 SW 13 15 1026.9 - 0.0 - - - - - - -
20/03:00pm 12.0 SW 13 16 1026.9 - 0.0 - - - - - - -
20/02:30pm 12.2 WSW 13 17 1026.9 - 0.0 - - - - - - -
20/02:00pm 12.1 SSW 10 12 1026.9 - 0.0 - - - - - - -
20/01:30pm 12.3 WSW 12 15 1026.7 - 0.0 - - - - - - -
20/01:00pm 12.1 SW 11 13 1026.9 - 0.0 - - - - - - -
20/12:30pm 10.7 SW 18 20 1026.9 - 0.0 - - - - - - -
20/12:00pm 11.9 SW 12 17 1027.0 - 0.0 - - - - - - -
20/11:30am 11.6 SW 9 17 1026.8 - 0.0 - - - - - - -
20/11:00am 10.7 SW 13 17 1026.9 - 0.0 - - - - - - -
20/10:30am 12.1 SSW 10 13 1026.6 - 0.0 - - - - - - -
20/10:00am 11.6 SSW 15 18 1026.5 - 0.0 - - - - - - -
20/09:30am 11.3 SW 8 11 1026.5 - 0.0 - - - - - - -
20/09:00am 11.4 SW 14 21 1026.1 - 1.6 - - - - - - -
20/08:30am 11.0 SW 13 17 1026.1 - 1.6 - - - - - - -
20/08:00am 11.0 SW 16 20 1025.7 - 1.6 - - - - - - -
20/07:30am 10.5 SW 14 20 1025.5 - 1.6 - - - - - - -
20/07:00am 10.5 SW 17 21 1025.0 - 1.6 - - - - - - -
20/06:30am 10.6 SW 21 23 1024.5 - 1.6 - - - - - - -
20/06:00am 11.1 SW 18 21 1024.1 - 1.6 - - - - - - -
20/05:30am 10.9 SW 17 19 1023.8 - 1.6 - - - - - - -
20/05:00am 10.7 SW 17 20 1023.3 - 1.6 - - - - - - -
20/04:30am 10.8 SW 18 19 1023.0 - 1.6 - - - - - - -

Other Formats:

Comma delimited format used in spreadsheet applications
http://www.bom.gov.au/fwo/IDT60701/IDT60701.94974.axf

JavaScript Object Notation format (JSON) in row-major order
http://www.bom.gov.au/fwo/IDT60701/IDT60701.94974.json